地図

経路データ

SID SEASON NUMBER BASIN SUBBASIN NAME ISO_TIME NATURE LAT LON WMO_WIND WMO_PRES WMO_AGENCY TRACK_TYPE DIST2LAND LANDFALL IFLAG USA_AGENCY USA_ATCF_ID USA_LAT USA_LON USA_RECORD USA_STATUS USA_WIND USA_PRES USA_SSHS USA_R34_NE USA_R34_SE USA_R34_SW USA_R34_NW USA_R50_NE USA_R50_SE USA_R50_SW USA_R50_NW USA_R64_NE USA_R64_SE USA_R64_SW USA_R64_NW USA_POCI USA_ROCI USA_RMW USA_EYE TOKYO_LAT TOKYO_LON TOKYO_GRADE TOKYO_WIND TOKYO_PRES TOKYO_R50_DIR TOKYO_R50_LONG TOKYO_R50_SHORT TOKYO_R30_DIR TOKYO_R30_LONG TOKYO_R30_SHORT TOKYO_LAND CMA_LAT CMA_LON CMA_CAT CMA_WIND CMA_PRES HKO_LAT HKO_LON HKO_CAT HKO_WIND HKO_PRES NEWDELHI_LAT NEWDELHI_LON NEWDELHI_GRADE NEWDELHI_WIND NEWDELHI_PRES NEWDELHI_CI NEWDELHI_DP NEWDELHI_POCI REUNION_LAT REUNION_LON REUNION_TYPE REUNION_WIND REUNION_PRES REUNION_TNUM REUNION_CI REUNION_RMW REUNION_R34_NE REUNION_R34_SE REUNION_R34_SW REUNION_R34_NW REUNION_R50_NE REUNION_R50_SE REUNION_R50_SW REUNION_R50_NW REUNION_R64_NE REUNION_R64_SE REUNION_R64_SW REUNION_R64_NW BOM_LAT BOM_LON BOM_TYPE BOM_WIND BOM_PRES BOM_TNUM BOM_CI BOM_RMW BOM_R34_NE BOM_R34_SE BOM_R34_SW BOM_R34_NW BOM_R50_NE BOM_R50_SE BOM_R50_SW BOM_R50_NW BOM_R64_NE BOM_R64_SE BOM_R64_SW BOM_R64_NW BOM_ROCI BOM_POCI BOM_EYE BOM_POS_METHOD BOM_PRES_METHOD NADI_LAT NADI_LON NADI_CAT NADI_WIND NADI_PRES WELLINGTON_LAT WELLINGTON_LON WELLINGTON_WIND WELLINGTON_PRES DS824_LAT DS824_LON DS824_STAGE DS824_WIND DS824_PRES TD9636_LAT TD9636_LON TD9636_STAGE TD9636_WIND TD9636_PRES TD9635_LAT TD9635_LON TD9635_WIND TD9635_PRES TD9635_ROCI NEUMANN_LAT NEUMANN_LON NEUMANN_CLASS NEUMANN_WIND NEUMANN_PRES MLC_LAT MLC_LON MLC_CLASS MLC_WIND MLC_PRES USA_GUST BOM_GUST BOM_GUST_PER REUNION_GUST REUNION_GUST_PER USA_SEAHGT USA_SEARAD_NE USA_SEARAD_SE USA_SEARAD_SW USA_SEARAD_NW STORM_SPEED STORM_DIR
1904190S33142 1905 20 SP EA NOT_NAMED 1904-07-07 12:00:00 NR -32.6000 142.400 main 0 0 __________O___ -1 -32.6000 142.400 7 0 0
1904190S33142 1905 20 SP EA NOT_NAMED 1904-07-07 15:00:00 NR -32.5862 142.400 main 0 0 __________P___ -1 -32.5862 142.400 7 0 72
1904190S33142 1905 20 SP EA NOT_NAMED 1904-07-07 18:00:00 NR -32.5880 142.449 main 0 0 __________P___ -1 -32.5880 142.449 7 2 102
1904190S33142 1905 20 SP EA NOT_NAMED 1904-07-07 21:00:00 NR -32.6209 142.599 main 0 0 __________P___ -1 -32.6209 142.599 7 4 106
1904190S33142 1905 20 SP EA NOT_NAMED 1904-07-08 00:00:00 NR -32.7000 142.900 main 0 0 __________O___ -1 -32.7000 142.900 7 7 108
1904190S33142 1905 20 SP EA NOT_NAMED 1904-07-08 03:00:00 NR -32.8323 143.382 main 0 0 __________P___ -1 -32.8323 143.382 7 10 108
1904190S33142 1905 20 SP EA NOT_NAMED 1904-07-08 06:00:00 NR -32.9953 143.992 main 0 0 __________P___ -1 -32.9953 143.992 7 11 107
1904190S33142 1905 20 SP EA NOT_NAMED 1904-07-08 09:00:00 NR -33.1604 144.657 main 0 0 __________P___ -1 -33.1604 144.657 7 11 106
1904190S33142 1905 20 SP EA NOT_NAMED 1904-07-08 12:00:00 NR -33.3000 145.300 main 0 0 __________O___ -1 -33.3000 145.300 7 10 104
1904190S33142 1905 20 SP EA NOT_NAMED 1904-07-08 15:00:00 NR -33.3939 145.820 main 0 0 __________P___ -1 -33.3939 145.820 7 9 101
1904190S33142 1905 20 SP EA NOT_NAMED 1904-07-08 18:00:00 NR -33.4586 146.303 main 0 0 __________P___ -1 -33.4586 146.303 7 8 97
1904190S33142 1905 20 SP EA NOT_NAMED 1904-07-08 21:00:00 NR -33.4941 146.760 main 0 0 __________P___ -1 -33.4941 146.760 7 7 93
1904190S33142 1905 20 SP EA NOT_NAMED 1904-07-09 00:00:00 NR -33.5000 147.200 main 0 0 __________O___ -1 -33.5000 147.200 7 8 90
1904190S33142 1905 20 SP EA NOT_NAMED 1904-07-09 03:00:00 NR -33.4908 147.668 main 0 0 __________P___ -1 -33.4908 147.668 7 8 86
1904190S33142 1905 20 SP EA NOT_NAMED 1904-07-09 06:00:00 NR -33.4525 148.118 main 0 0 __________P___ -1 -33.4525 148.118 7 7 82
1904190S33142 1905 20 SP EA NOT_NAMED 1904-07-09 09:00:00 NR -33.3879 148.534 main 0 0 __________P___ -1 -33.3879 148.534 7 7 77
1904190S33142 1905 20 SP EA NOT_NAMED 1904-07-09 12:00:00 NR -33.3000 148.900 main 0 0 __________O___ -1 -33.3000 148.900 7 6 71
1904190S33142 1905 20 SP EA NOT_NAMED 1904-07-09 15:00:00 NR -33.1924 149.207 main 0 0 __________P___ -1 -33.1924 149.207 7 5 64
1904190S33142 1905 20 SP EA NOT_NAMED 1904-07-09 18:00:00 NR -33.0699 149.465 main 0 0 __________P___ -1 -33.0699 149.465 7 5 58
1904190S33142 1905 20 SP EA NOT_NAMED 1904-07-09 21:00:00 NR -32.9375 149.691 main 0 0 __________P___ -1 -32.9375 149.691 7 5 54
1904190S33142 1905 20 SP EA NOT_NAMED 1904-07-10 00:00:00 NR -32.8000 149.900 main 0 __________O___ -1 -32.8000 149.900 7 4 52

デジタル台風データ・検索

IBTrACS Databaseについて

本データベースは、米国NOAAが公開する1842年以降の世界の熱帯低気圧のベストトラックデータアーカイブInternational Best Track Archive for Climate Stewardship (IBTrACS)を、ウェブで閲覧しやすい形式に変換したものです。

最終更新日:2021-12-08